Time;durP1;ratioP1;P1;durP2;ratioP2;P2;SDS_P1;SDS_P2;PMS_P1;PMS_P2;Temp;Humidity;BMP_temperature;BMP_pressure;BME280_temperature;BME280_humidity;BME280_pressure;Samples;Min_cycle;Max_cycle;Signal;HPM_P1;HPM_P2
2022/05/29 00:00:46;;;;;;;15.75;3.13;;;10.20;99.90;;;;;;5047967;28;20032;-61
2022/05/29 00:03:13;;;;;;;12.40;3.80;;;10.20;99.90;;;;;;5063977;28;20065;-61
2022/05/29 00:05:40;;;;;;;14.90;3.30;;;10.10;99.90;;;;;;5057006;28;20044;-55
2022/05/29 00:08:07;;;;;;;17.95;3.70;;;10.10;99.90;;;;;;5056839;28;20051;-61
2022/05/29 00:10:38;;;;;;;14.77;3.55;;;10.10;99.90;;;;;;5055435;28;20117;-60
2022/05/29 00:13:04;;;;;;;16.42;3.63;;;10.10;99.90;;;;;;5061347;28;20047;-59
2022/05/29 00:15:30;;;;;;;17.02;3.72;;;10.10;99.90;;;;;;5057350;28;20593;-61
2022/05/29 00:17:56;;;;;;;16.30;3.90;;;10.10;99.90;;;;;;5053841;28;20052;-62
2022/05/29 00:20:22;;;;;;;21.73;3.75;;;10.10;99.90;;;;;;5060755;28;20084;-62
2022/05/29 00:22:48;;;;;;;14.63;3.63;;;10.10;99.90;;;;;;5060315;28;20119;-61
2022/05/29 00:25:14;;;;;;;16.73;3.58;;;10.10;99.90;;;;;;5061094;28;20084;-60
2022/05/29 00:27:40;;;;;;;11.50;3.42;;;10.10;99.90;;;;;;5063750;28;20498;-58
2022/05/29 00:30:09;;;;;;;17.00;3.50;;;10.10;99.90;;;;;;5062172;28;20052;-56
2022/05/29 00:32:35;;;;;;;14.93;3.30;;;10.10;99.90;;;;;;5060071;28;20048;-59
2022/05/29 00:35:01;;;;;;;14.32;3.20;;;10.00;99.90;;;;;;5061654;28;20043;-60
2022/05/29 00:37:30;;;;;;;12.52;3.20;;;10.00;99.90;;;;;;5054057;28;20055;-61
2022/05/29 00:39:56;;;;;;;12.43;3.42;;;10.00;99.90;;;;;;5058196;28;20468;-60
2022/05/29 00:42:24;;;;;;;13.40;3.22;;;10.00;99.90;;;;;;5058315;28;20075;-60
2022/05/29 00:44:50;;;;;;;15.93;3.50;;;10.00;99.90;;;;;;5062013;28;20517;-61
2022/05/29 00:47:19;;;;;;;18.92;4.10;;;10.10;99.90;;;;;;5059920;28;20040;-60
2022/05/29 00:49:47;;;;;;;13.35;3.65;;;10.10;99.90;;;;;;5061743;28;20106;-61
2022/05/29 00:52:25;;;;;;;17.15;3.45;;;10.10;99.90;;;;;;5060543;28;20040;-61
2022/05/29 00:55:00;;;;;;;15.32;3.60;;;10.10;99.90;;;;;;5057661;28;20101;-61
2022/05/29 00:57:30;;;;;;;16.98;3.83;;;10.10;99.90;;;;;;5060680;28;20489;-61
2022/05/29 01:00:02;;;;;;;16.35;4.28;;;10.10;99.90;;;;;;5059580;28;20379;-61
2022/05/29 01:02:28;;;;;;;20.90;4.13;;;10.10;99.90;;;;;;5062450;28;20072;-61
2022/05/29 01:04:56;;;;;;;17.65;4.18;;;10.10;99.90;;;;;;5064515;28;21407;-61
2022/05/29 01:07:22;;;;;;;15.60;3.60;;;10.10;99.90;;;;;;5059026;28;20190;-61
2022/05/29 01:09:50;;;;;;;15.95;3.60;;;10.20;99.90;;;;;;5059816;28;21042;-61
2022/05/29 01:12:40;;;;;;;17.73;3.35;;;10.20;99.90;;;;;;5056693;28;20126;-61
2022/05/29 01:15:19;;;;;;;15.25;3.28;;;10.20;99.90;;;;;;5060277;28;20037;-57
2022/05/29 01:18:00;;;;;;;19.75;3.60;;;10.20;99.90;;;;;;5055995;28;20505;-61
2022/05/29 01:20:56;;;;;;;15.77;3.35;;;10.20;99.90;;;;;;5062291;28;20436;-58
2022/05/29 01:23:52;;;;;;;13.10;3.30;;;10.10;99.90;;;;;;5027721;28;20044;-61
2022/05/29 01:26:50;;;;;;;22.05;3.72;;;10.20;99.90;;;;;;5055660;28;20121;-60
2022/05/29 01:29:21;;;;;;;12.13;3.55;;;10.20;99.90;;;;;;5060920;28;20044;-61
2022/05/29 01:31:47;;;;;;;11.73;4.00;;;10.20;99.90;;;;;;5062036;28;20044;-61
2022/05/29 01:34:31;;;;;;;15.52;3.92;;;10.20;99.90;;;;;;5059519;28;20045;-57
2022/05/29 01:37:29;;;;;;;14.18;4.20;;;10.20;99.90;;;;;;5057350;28;20542;-61
2022/05/29 01:40:09;;;;;;;13.98;3.55;;;10.20;99.90;;;;;;5058891;28;20052;-59
2022/05/29 01:42:47;;;;;;;11.85;3.45;;;10.20;99.90;;;;;;5060676;28;20048;-61
2022/05/29 01:45:53;;;;;;;13.15;3.42;;;10.20;99.90;;;;;;5060214;28;20045;-61
2022/05/29 01:48:22;;;;;;;12.60;3.85;;;10.30;99.90;;;;;;5058266;28;20044;-61
2022/05/29 01:50:55;;;;;;;18.65;3.50;;;10.20;99.90;;;;;;5058335;28;20131;-58
2022/05/29 01:53:28;;;;;;;15.02;3.45;;;10.30;99.90;;;;;;5052072;28;20483;-61
2022/05/29 01:55:59;;;;;;;15.75;3.58;;;10.30;99.90;;;;;;5062450;28;20552;-61
2022/05/29 01:58:38;;;;;;;8.45;2.92;;;10.30;99.90;;;;;;5056761;28;20533;-57
2022/05/29 02:01:08;;;;;;;10.57;2.75;;;10.20;99.90;;;;;;5055023;28;20063;-61
2022/05/29 02:03:38;;;;;;;14.52;2.80;;;10.20;99.90;;;;;;5058044;28;20059;-59
2022/05/29 02:06:13;;;;;;;12.30;3.00;;;10.20;99.90;;;;;;5058487;28;20040;-58
2022/05/29 02:08:48;;;;;;;8.90;2.90;;;10.30;99.90;;;;;;5054932;28;20631;-61
2022/05/29 02:11:21;;;;;;;11.77;3.03;;;10.30;99.90;;;;;;5054378;28;20048;-61
2022/05/29 02:13:59;;;;;;;15.13;3.15;;;10.30;99.90;;;;;;5058726;28;20037;-61
2022/05/29 02:16:31;;;;;;;18.38;3.92;;;10.30;99.90;;;;;;5059146;28;20044;-61
2022/05/29 02:19:13;;;;;;;;;;;10.30;99.90;;;;;;5059461;28;20102;-61
2022/05/29 02:22:00;;;;;;;14.23;2.95;;;10.30;99.90;;;;;;5054053;28;19994;-60
2022/05/29 02:24:37;;;;;;;15.25;3.30;;;10.30;99.90;;;;;;5057999;28;20055;-61
2022/05/29 02:27:07;;;;;;;13.75;4.07;;;10.30;99.90;;;;;;5062058;28;20060;-61
2022/05/29 02:29:34;;;;;;;20.38;3.50;;;10.30;99.90;;;;;;5061375;28;20044;-61
2022/05/29 02:32:37;;;;;;;13.10;3.05;;;10.30;99.90;;;;;;5055596;28;20135;-61
2022/05/29 02:35:12;;;;;;;10.43;3.00;;;10.40;99.90;;;;;;5060626;28;20040;-57
2022/05/29 02:37:44;;;;;;;9.73;2.97;;;10.30;99.90;;;;;;5058941;28;20036;-57
2022/05/29 02:40:56;;;;;;;14.50;3.20;;;10.40;99.90;;;;;;5060063;28;20057;-58
2022/05/29 02:43:43;;;;;;;12.80;3.35;;;10.40;99.90;;;;;;5035047;28;20529;-61
2022/05/29 02:46:18;;;;;;;10.30;2.88;;;10.40;99.90;;;;;;5057198;28;20036;-58
2022/05/29 02:49:00;;;;;;;17.30;3.45;;;10.40;99.90;;;;;;5061107;28;20084;-61
2022/05/29 02:51:40;;;;;;;12.25;2.95;;;10.30;99.90;;;;;;5054351;28;20075;-58
2022/05/29 02:54:11;;;;;;;11.43;3.20;;;10.20;99.90;;;;;;5060927;28;20479;-55
2022/05/29 02:56:37;;;;;;;11.43;2.72;;;10.20;99.90;;;;;;5055222;28;20094;-59
2022/05/29 02:59:03;;;;;;;11.95;3.42;;;10.20;99.90;;;;;;5059768;28;20044;-61
2022/05/29 03:01:36;;;;;;;14.93;3.47;;;10.20;99.90;;;;;;5054866;28;21414;-61
2022/05/29 03:04:35;;;;;;;15.88;3.72;;;10.20;99.90;;;;;;5042401;28;20044;-58
2022/05/29 03:07:05;;;;;;;14.77;3.38;;;10.20;99.90;;;;;;5057142;28;20494;-58
2022/05/29 03:09:54;;;;;;;13.07;3.00;;;10.20;99.90;;;;;;5064917;28;20514;-61
2022/05/29 03:12:44;;;;;;;11.32;3.10;;;10.20;99.90;;;;;;5055393;28;20040;-58
2022/05/29 03:15:25;;;;;;;11.88;3.05;;;10.20;99.90;;;;;;5061038;28;20115;-61
2022/05/29 03:18:08;;;;;;;8.75;2.58;;;10.20;99.90;;;;;;5061704;28;20056;-61
2022/05/29 03:20:56;;;;;;;12.05;3.63;;;10.20;99.90;;;;;;5060249;28;20044;-60
2022/05/29 03:23:32;;;;;;;9.93;2.47;;;10.20;99.90;;;;;;5054248;28;20483;-59
2022/05/29 03:26:03;;;;;;;12.18;2.55;;;10.20;99.90;;;;;;5060196;28;20150;-58
2022/05/29 03:28:50;;;;;;;7.70;2.42;;;10.20;99.90;;;;;;5060331;28;20061;-57
2022/05/29 03:31:21;;;;;;;9.85;2.75;;;10.20;99.90;;;;;;5056800;28;20474;-61
2022/05/29 03:33:48;;;;;;;10.27;2.47;;;10.20;99.90;;;;;;5055471;28;20055;-61
2022/05/29 03:36:15;;;;;;;10.38;2.15;;;10.20;99.90;;;;;;5060709;28;20604;-61
2022/05/29 03:38:43;;;;;;;10.27;2.20;;;10.20;99.90;;;;;;5063590;28;20053;-61
2022/05/29 03:41:39;;;;;;;13.70;2.63;;;10.20;99.90;;;;;;5064893;28;20045;-61
2022/05/29 03:44:06;;;;;;;20.40;2.75;;;10.20;99.90;;;;;;5058836;28;20541;-61
2022/05/29 03:46:32;;;;;;;14.35;2.88;;;10.20;99.90;;;;;;5059564;28;20494;-59
2022/05/29 03:48:58;;;;;;;10.98;2.05;;;10.30;99.90;;;;;;5054917;28;20502;-57
2022/05/29 03:51:24;;;;;;;15.38;2.70;;;10.30;99.90;;;;;;5061954;28;20094;-60
2022/05/29 03:53:49;;;;;;;13.68;3.00;;;10.30;99.90;;;;;;5056487;28;20905;-61
2022/05/29 03:56:15;;;;;;;12.93;3.17;;;10.20;99.90;;;;;;5059724;28;20082;-60
2022/05/29 03:58:41;;;;;;;12.10;2.97;;;10.30;99.90;;;;;;5041651;28;20045;-57
2022/05/29 04:01:07;;;;;;;18.23;2.88;;;10.20;99.90;;;;;;5055055;28;20052;-61
2022/05/29 04:03:34;;;;;;;15.95;3.20;;;10.30;99.90;;;;;;5059911;28;20055;-61
2022/05/29 04:06:00;;;;;;;16.02;3.30;;;10.20;99.90;;;;;;5058265;28;20045;-61
2022/05/29 04:13:57;;;;;;;15.75;3.17;;;10.20;99.90;;;;;;5053782;28;20049;-61
2022/05/29 04:16:23;;;;;;;15.77;3.13;;;10.20;99.90;;;;;;5061337;28;20079;-61
2022/05/29 04:18:49;;;;;;;14.82;3.58;;;10.30;99.90;;;;;;5060017;28;20084;-58
2022/05/29 04:21:15;;;;;;;13.75;2.70;;;10.20;99.90;;;;;;5061135;28;20052;-56
2022/05/29 04:23:41;;;;;;;16.67;3.42;;;10.20;99.90;;;;;;5059512;28;20040;-61
2022/05/29 04:26:07;;;;;;;16.40;3.55;;;10.20;99.90;;;;;;5060525;28;20399;-61
2022/05/29 04:28:33;;;;;;;17.75;3.20;;;10.20;99.90;;;;;;5061660;28;20044;-61
2022/05/29 04:30:58;;;;;;;13.18;2.90;;;10.20;99.90;;;;;;5061879;28;20044;-58
2022/05/29 04:33:25;;;;;;;16.38;3.00;;;10.20;99.90;;;;;;5063928;28;20051;-60
2022/05/29 04:35:53;;;;;;;14.13;3.03;;;10.20;99.90;;;;;;5061238;28;20084;-59
2022/05/29 04:38:20;;;;;;;10.68;3.05;;;10.20;99.90;;;;;;5060102;28;20033;-59
2022/05/29 04:40:46;;;;;;;17.10;3.05;;;10.20;99.90;;;;;;5064039;28;20592;-59
2022/05/29 04:43:13;;;;;;;14.80;3.15;;;10.20;99.90;;;;;;5061733;28;20044;-56
2022/05/29 04:45:41;;;;;;;16.35;3.17;;;10.20;99.90;;;;;;5041461;28;20430;-58
2022/05/29 04:48:07;;;;;;;17.13;3.30;;;10.20;99.90;;;;;;5061519;28;20044;-58
2022/05/29 04:50:33;;;;;;;16.83;3.60;;;10.20;99.90;;;;;;5047692;28;20048;-60
2022/05/29 04:52:59;;;;;;;10.77;2.65;;;10.30;99.90;;;;;;5060369;28;20110;-57
2022/05/29 04:55:25;;;;;;;20.25;3.00;;;10.30;99.90;;;;;;5061907;28;20044;-61
2022/05/29 04:57:51;;;;;;;14.70;3.10;;;10.30;99.90;;;;;;5058855;28;20037;-61
2022/05/29 05:00:17;;;;;;;17.00;2.75;;;10.30;99.90;;;;;;5057418;28;20056;-58
2022/05/29 05:02:43;;;;;;;11.82;2.75;;;10.40;99.90;;;;;;5059968;28;20517;-61
2022/05/29 05:05:09;;;;;;;15.35;2.70;;;10.40;99.90;;;;;;5057353;28;20041;-61
2022/05/29 05:07:35;;;;;;;17.02;2.92;;;10.40;99.90;;;;;;5059608;28;20115;-61
2022/05/29 05:10:03;;;;;;;15.15;3.20;;;10.40;99.90;;;;;;5060943;28;20040;-61
2022/05/29 05:12:29;;;;;;;13.75;2.75;;;10.50;99.90;;;;;;5061386;28;20484;-61
2022/05/29 05:14:55;;;;;;;19.27;3.50;;;10.50;99.90;;;;;;5064190;28;20047;-61
2022/05/29 05:17:21;;;;;;;14.68;2.92;;;10.50;99.90;;;;;;5055912;28;20119;-61
2022/05/29 05:19:46;;;;;;;12.73;2.55;;;10.50;99.90;;;;;;5047980;28;20060;-61
2022/05/29 05:22:13;;;;;;;20.38;3.25;;;10.50;99.90;;;;;;5060426;28;20041;-57
2022/05/29 05:24:39;;;;;;;16.65;3.17;;;10.60;99.90;;;;;;5061483;28;20045;-59
2022/05/29 05:27:07;;;;;;;15.85;2.80;;;10.60;99.90;;;;;;5057757;28;20036;-61
2022/05/29 05:29:33;;;;;;;18.20;3.17;;;10.60;99.90;;;;;;5062734;28;20139;-59
2022/05/29 05:32:00;;;;;;;18.10;3.75;;;10.50;99.90;;;;;;5047696;28;20056;-56
2022/05/29 05:34:27;;;;;;;13.15;3.10;;;10.50;99.90;;;;;;5059958;28;20040;-61
2022/05/29 05:36:54;;;;;;;27.00;4.13;;;10.50;99.90;;;;;;5043494;28;20067;-61
2022/05/29 05:39:20;;;;;;;18.23;3.80;;;10.40;99.90;;;;;;5059128;28;20206;-61
2022/05/29 05:41:46;;;;;;;13.68;3.22;;;10.50;99.90;;;;;;5060310;28;20107;-61
2022/05/29 05:44:12;;;;;;;15.10;3.88;;;10.40;99.90;;;;;;5060113;28;20048;-57
2022/05/29 05:46:44;;;;;;;17.20;3.25;;;10.50;99.90;;;;;;5060824;28;20040;-61
2022/05/29 05:49:10;;;;;;;20.70;3.35;;;10.50;99.90;;;;;;5058750;28;20057;-59
2022/05/29 05:51:35;;;;;;;24.92;3.58;;;10.50;99.90;;;;;;5058855;28;20497;-61
2022/05/29 05:54:01;;;;;;;14.98;2.90;;;10.60;99.90;;;;;;5062263;28;20094;-61
2022/05/29 05:56:27;;;;;;;16.50;3.58;;;10.60;99.90;;;;;;5060614;28;20032;-61
2022/05/29 05:58:53;;;;;;;19.38;4.20;;;10.70;99.90;;;;;;5055602;28;20085;-58
2022/05/29 06:01:18;;;;;;;25.70;3.67;;;10.70;99.90;;;;;;5059964;28;20516;-58
2022/05/29 06:03:44;;;;;;;12.50;3.42;;;10.70;99.90;;;;;;5050051;28;20049;-59
2022/05/29 06:06:10;;;;;;;14.35;3.05;;;10.80;99.90;;;;;;5047706;28;20052;-60
2022/05/29 06:08:36;;;;;;;15.43;2.78;;;10.80;99.90;;;;;;5051737;28;20489;-61
2022/05/29 06:11:03;;;;;;;16.92;3.10;;;10.90;99.90;;;;;;5048299;28;20485;-60
2022/05/29 06:13:29;;;;;;;13.73;2.50;;;10.90;99.90;;;;;;5053906;28;20055;-61
2022/05/29 06:16:02;;;;;;;17.98;2.95;;;10.90;99.90;;;;;;5054191;28;20060;-58
2022/05/29 06:18:28;;;;;;;15.35;2.55;;;10.90;99.90;;;;;;5057003;28;20570;-58
2022/05/29 06:21:04;;;;;;;14.45;2.78;;;10.90;99.90;;;;;;5049457;28;20418;-61
2022/05/29 06:23:31;;;;;;;14.85;2.60;;;11.00;99.90;;;;;;5051280;28;20401;-58
2022/05/29 06:26:02;;;;;;;12.20;2.03;;;11.00;99.90;;;;;;5047823;28;21161;-60
2022/05/29 06:28:28;;;;;;;7.68;1.98;;;11.00;99.90;;;;;;5050759;28;20044;-57
2022/05/29 06:30:54;;;;;;;11.07;2.08;;;11.00;99.90;;;;;;5052205;28;20048;-58
2022/05/29 06:33:20;;;;;;;9.57;1.98;;;11.10;99.90;;;;;;5057003;28;20630;-57
2022/05/29 06:35:45;;;;;;;12.93;2.15;;;11.00;99.90;;;;;;5057476;28;20082;-61
2022/05/29 06:38:11;;;;;;;13.50;1.95;;;11.00;99.90;;;;;;5060696;28;20041;-61
2022/05/29 06:40:42;;;;;;;11.32;2.78;;;11.00;99.90;;;;;;5052518;28;20048;-61
2022/05/29 06:43:09;;;;;;;17.15;2.70;;;11.00;99.90;;;;;;5057539;28;20051;-61
2022/05/29 06:45:36;;;;;;;15.77;2.28;;;11.00;99.90;;;;;;5047762;28;20083;-61
2022/05/29 06:48:01;;;;;;;12.23;2.92;;;11.00;99.90;;;;;;5050442;28;20056;-61
2022/05/29 06:50:28;;;;;;;17.05;2.60;;;11.00;99.90;;;;;;5054280;28;20044;-61
2022/05/29 06:52:54;;;;;;;13.35;2.60;;;11.10;99.90;;;;;;5061653;28;20141;-57
2022/05/29 06:55:21;;;;;;;11.25;2.65;;;11.10;99.90;;;;;;5060150;28;20055;-61
2022/05/29 06:57:48;;;;;;;12.98;2.42;;;11.10;99.90;;;;;;5060616;28;20340;-61
2022/05/29 07:08:33;;;;;;;10.50;2.20;;;11.20;99.90;;;;;;5058716;28;20052;-56
2022/05/29 07:11:09;;;;;;;11.75;2.10;;;11.20;99.90;;;;;;5052251;28;21051;-60
2022/05/29 07:13:35;;;;;;;9.18;1.92;;;11.10;99.90;;;;;;5056325;28;20041;-61
2022/05/29 07:16:02;;;;;;;6.97;1.42;;;11.10;99.90;;;;;;5057707;28;20119;-61
2022/05/29 07:18:29;;;;;;;9.65;2.15;;;11.10;99.90;;;;;;5057445;28;20040;-61
2022/05/29 07:20:59;;;;;;;9.00;1.63;;;11.00;99.90;;;;;;5056072;28;20048;-59
2022/05/29 07:23:25;;;;;;;8.50;2.05;;;11.10;99.90;;;;;;5060059;28;20387;-61
2022/05/29 07:25:51;;;;;;;8.30;1.95;;;11.10;99.90;;;;;;5056939;28;20059;-61
2022/05/29 07:28:17;;;;;;;8.35;1.30;;;11.10;99.90;;;;;;5060770;28;20054;-61
2022/05/29 07:30:43;;;;;;;7.55;1.73;;;11.20;99.90;;;;;;5055642;28;20049;-55
2022/05/29 07:33:09;;;;;;;10.60;1.70;;;11.20;99.90;;;;;;5057608;28;20064;-61
2022/05/29 07:35:35;;;;;;;10.40;1.50;;;11.30;99.90;;;;;;5059954;28;20036;-61
2022/05/29 07:38:01;;;;;;;11.48;1.85;;;11.30;99.90;;;;;;5060280;28;20083;-61
2022/05/29 07:40:27;;;;;;;7.90;1.40;;;11.40;99.90;;;;;;5053132;28;20190;-61
2022/05/29 07:45:38;;;;;;;4.15;1.10;;;11.40;99.90;;;;;;5056555;28;20036;-59
2022/05/29 07:48:04;;;;;;;4.78;1.50;;;11.40;99.90;;;;;;5056635;28;20051;-57
2022/05/29 07:50:30;;;;;;;6.95;1.45;;;11.40;99.90;;;;;;5038282;28;20083;-61
2022/05/29 07:52:56;;;;;;;6.72;1.50;;;11.40;99.90;;;;;;5058159;28;20086;-57
2022/05/29 07:55:21;;;;;;;10.93;1.70;;;11.40;99.90;;;;;;5058317;28;20048;-61
2022/05/29 07:57:48;;;;;;;9.50;1.90;;;11.30;99.90;;;;;;5053144;28;20436;-55
2022/05/29 08:00:18;;;;;;;10.80;1.83;;;11.30;99.90;;;;;;5047911;28;20072;-61
2022/05/29 08:02:44;;;;;;;9.05;1.83;;;11.30;99.90;;;;;;5058102;28;20056;-56
2022/05/29 08:05:13;;;;;;;11.50;1.83;;;11.30;99.90;;;;;;5051634;28;20056;-61
2022/05/29 08:07:39;;;;;;;6.63;1.58;;;11.30;99.90;;;;;;5056396;28;20053;-58
2022/05/29 08:10:06;;;;;;;9.13;2.05;;;11.30;99.90;;;;;;5050243;28;20040;-61
2022/05/29 08:12:32;;;;;;;10.60;1.65;;;11.30;99.90;;;;;;5055309;28;20049;-55
2022/05/29 08:14:58;;;;;;;6.15;1.70;;;11.30;99.90;;;;;;5050665;28;20149;-61
2022/05/29 08:17:24;;;;;;;11.88;1.60;;;11.40;99.90;;;;;;5052060;28;20105;-60
2022/05/29 08:19:49;;;;;;;7.70;2.05;;;11.40;99.90;;;;;;5047798;28;20087;-61
2022/05/29 08:22:15;;;;;;;10.38;1.70;;;11.40;99.90;;;;;;5058020;28;20053;-58
2022/05/29 08:33:00;;;;;;;12.27;2.28;;;11.30;99.90;;;;;;5055662;28;20072;-55
2022/05/29 08:35:26;;;;;;;11.73;2.58;;;11.30;99.90;;;;;;5053757;28;20719;-62
2022/05/29 08:37:52;;;;;;;11.05;1.95;;;11.30;99.90;;;;;;5050151;28;20401;-62
2022/05/29 08:40:18;;;;;;;12.15;2.05;;;11.30;99.90;;;;;;5049773;28;20044;-62
2022/05/29 08:42:43;;;;;;;9.43;1.90;;;11.30;99.90;;;;;;5054290;28;20055;-61
2022/05/29 08:45:12;;;;;;;8.27;1.80;;;11.30;99.90;;;;;;5054017;28;20090;-57
2022/05/29 08:47:39;;;;;;;7.55;1.98;;;11.30;99.90;;;;;;5053547;28;20044;-60
2022/05/29 08:50:06;;;;;;;12.85;1.92;;;11.40;99.90;;;;;;5055485;28;20478;-60
2022/05/29 08:52:56;;;;;;;10.15;2.30;;;11.40;99.90;;;;;;5056529;28;20036;-61
2022/05/29 08:55:27;;;;;;;6.53;1.45;;;11.40;99.90;;;;;;5057136;28;20579;-61
2022/05/29 08:58:23;;;;;;;10.52;1.50;;;11.40;99.90;;;;;;5054531;28;20127;-61
2022/05/29 09:01:06;;;;;;;8.60;1.88;;;11.40;99.90;;;;;;5050643;28;20044;-60
2022/05/29 09:03:58;;;;;;;10.23;1.90;;;11.40;99.90;;;;;;5050330;28;20102;-60
2022/05/29 09:06:37;;;;;;;10.95;1.80;;;11.40;99.90;;;;;;5052650;28;20099;-61
2022/05/29 09:09:06;;;;;;;12.13;2.30;;;11.50;99.90;;;;;;5060297;28;20044;-61
2022/05/29 09:11:54;;;;;;;11.95;2.60;;;11.60;99.90;;;;;;5053323;28;20047;-58
2022/05/29 09:14:52;;;;;;;7.57;2.13;;;11.60;99.90;;;;;;5060903;28;20043;-60
2022/05/29 09:17:35;;;;;;;9.95;1.80;;;11.70;99.90;;;;;;5054220;28;20044;-61
2022/05/29 09:20:32;;;;;;;13.52;2.33;;;11.70;99.90;;;;;;5048368;28;20104;-60
2022/05/29 09:23:03;;;;;;;8.45;2.10;;;11.80;99.90;;;;;;5044009;28;20106;-60
2022/05/29 09:25:31;;;;;;;17.55;2.28;;;11.80;99.90;;;;;;5059644;28;20049;-61
2022/05/29 09:28:15;;;;;;;9.18;2.20;;;11.70;99.90;;;;;;5061612;28;20044;-60
2022/05/29 09:30:40;;;;;;;9.75;2.42;;;11.70;99.90;;;;;;5056090;28;20415;-59
2022/05/29 09:33:20;;;;;;;12.70;2.33;;;11.70;99.90;;;;;;5021217;28;20044;-59
2022/05/29 09:35:49;;;;;;;9.30;2.05;;;11.80;99.90;;;;;;5049035;28;20057;-60
2022/05/29 09:38:30;;;;;;;12.73;2.33;;;11.80;99.90;;;;;;5045723;28;20032;-59
2022/05/29 09:41:06;;;;;;;9.52;1.98;;;11.80;99.90;;;;;;5054284;28;20589;-58
2022/05/29 09:43:32;;;;;;;20.23;2.15;;;11.90;99.90;;;;;;5050618;28;20469;-59
2022/05/29 09:46:30;;;;;;;6.97;1.20;;;12.00;99.90;;;;;;5052820;28;20071;-59
2022/05/29 09:51:55;;;;;;;9.43;1.55;;;12.10;99.90;;;;;;5041675;28;20044;-60
2022/05/29 09:54:29;;;;;;;9.65;1.75;;;12.10;99.90;;;;;;5044825;28;20040;-59
2022/05/29 09:57:10;;;;;;;7.75;2.00;;;12.20;99.90;;;;;;5050637;28;20093;-58
2022/05/29 09:59:43;;;;;;;7.75;1.50;;;12.20;99.90;;;;;;5052507;28;20049;-59
2022/05/29 10:02:21;;;;;;;;;;;12.30;99.90;;;;;;5046062;28;20051;-59
2022/05/29 10:04:52;;;;;;;11.45;2.05;;;12.30;99.90;;;;;;5049935;28;20018;-59
2022/05/29 10:07:29;;;;;;;10.02;1.98;;;12.30;99.90;;;;;;5049735;28;20495;-59
2022/05/29 10:10:00;;;;;;;11.85;2.33;;;12.40;99.90;;;;;;5053024;28;20324;-59
2022/05/29 10:12:38;;;;;;;14.10;2.00;;;12.40;99.90;;;;;;5027105;28;20040;-59
2022/05/29 10:15:11;;;;;;;8.45;2.10;;;12.40;99.90;;;;;;5051182;28;20049;-59
2022/05/29 10:17:38;;;;;;;18.20;2.40;;;12.30;99.90;;;;;;5055130;28;20036;-59
2022/05/29 10:20:24;;;;;;;7.28;1.55;;;12.30;99.90;;;;;;5049863;28;20139;-59
2022/05/29 10:22:52;;;;;;;7.57;1.80;;;12.30;99.90;;;;;;5051853;28;20514;-60
2022/05/29 10:25:26;;;;;;;15.77;1.75;;;12.30;99.90;;;;;;5041061;28;20049;-59
2022/05/29 10:27:56;;;;;;;9.88;1.60;;;12.40;99.90;;;;;;5051289;28;20312;-59
2022/05/29 10:30:54;;;;;;;11.10;2.00;;;12.40;99.90;;;;;;5053987;28;20044;-58
2022/05/29 10:33:25;;;;;;;8.75;2.03;;;12.60;99.90;;;;;;5051734;28;20390;-59
2022/05/29 10:36:13;;;;;;;11.25;2.10;;;12.70;99.90;;;;;;5045714;28;20457;-59
2022/05/29 10:38:40;;;;;;;10.95;1.52;;;12.90;99.90;;;;;;5048141;28;20040;-59
2022/05/29 10:41:07;;;;;;;12.45;1.95;;;12.90;99.90;;;;;;5051166;28;20048;-58
2022/05/29 10:43:46;;;;;;;13.45;1.88;;;12.80;99.90;;;;;;5053445;28;20048;-58
2022/05/29 10:46:48;;;;;;;6.03;1.40;;;12.60;99.90;;;;;;5053035;28;20044;-59
2022/05/29 10:49:27;;;;;;;6.22;1.90;;;12.40;99.90;;;;;;5041328;28;20144;-59
2022/05/29 10:52:12;;;;;;;9.15;2.10;;;12.20;99.90;;;;;;5057304;28;20041;-58
2022/05/29 10:54:59;;;;;;;7.55;1.85;;;12.10;99.90;;;;;;5045904;28;20147;-59
2022/05/29 10:58:02;;;;;;;14.05;1.88;;;12.00;99.90;;;;;;5049799;28;20471;-59
2022/05/29 11:00:55;;;;;;;8.07;2.15;;;11.90;99.90;;;;;;5008601;28;20843;-59
2022/05/29 11:03:58;;;;;;;11.00;2.73;;;11.80;99.90;;;;;;5047092;28;20086;-58
2022/05/29 11:06:29;;;;;;;;;;;11.80;99.90;;;;;;5046781;28;20032;-59
2022/05/29 11:09:16;;;;;;;10.23;1.88;;;11.90;99.90;;;;;;5048095;28;20614;-59
2022/05/29 11:12:02;;;;;;;9.38;1.90;;;12.00;99.90;;;;;;5056135;28;20364;-59
2022/05/29 11:14:56;;;;;;;9.50;2.25;;;12.10;99.90;;;;;;5047843;28;20433;-59
2022/05/29 11:17:46;;;;;;;8.38;2.35;;;12.30;99.90;;;;;;5029984;28;20637;-58
2022/05/29 11:20:35;;;;;;;8.90;2.33;;;12.40;99.90;;;;;;5048499;28;20048;-59
2022/05/29 11:23:09;;;;;;;7.82;1.98;;;12.50;99.90;;;;;;5045054;28;20045;-59
2022/05/29 11:25:35;;;;;;;9.35;2.25;;;12.60;99.90;;;;;;5048221;28;20056;-59
2022/05/29 11:28:20;;;;;;;12.27;2.13;;;12.70;99.90;;;;;;5049781;28;20098;-59
2022/05/29 11:31:04;;;;;;;15.93;2.85;;;12.70;99.90;;;;;;5052428;28;20131;-59
2022/05/29 11:33:54;;;;;;;11.77;2.30;;;12.80;99.90;;;;;;5053338;28;20056;-58
2022/05/29 11:36:38;;;;;;;13.90;2.30;;;12.80;99.90;;;;;;5054904;28;20159;-59
2022/05/29 11:39:19;;;;;;;10.05;2.03;;;12.90;99.90;;;;;;5051976;28;20040;-58
2022/05/29 11:42:01;;;;;;;15.02;2.30;;;12.90;99.90;;;;;;5055427;28;20036;-58
2022/05/29 11:44:57;;;;;;;16.83;2.70;;;12.90;99.90;;;;;;5053057;28;20518;-59
2022/05/29 11:53:19;;;;;;;9.98;1.75;;;13.00;99.90;;;;;;5053154;28;20127;-59
2022/05/29 11:55:48;;;;;;;10.25;2.25;;;13.00;99.90;;;;;;5054553;28;20048;-59
2022/05/29 11:58:24;;;;;;;11.43;2.00;;;13.00;99.90;;;;;;5051667;28;20044;-58
2022/05/29 12:01:06;;;;;;;8.05;1.65;;;12.90;99.90;;;;;;5046265;28;20070;-60
2022/05/29 12:03:36;;;;;;;10.15;1.80;;;12.90;99.90;;;;;;5052870;28;20048;-59
2022/05/29 12:06:11;;;;;;;12.90;2.40;;;12.70;99.90;;;;;;5034383;28;20056;-59
2022/05/29 12:08:53;;;;;;;10.05;1.98;;;12.60;99.90;;;;;;5046997;28;20169;-57
2022/05/29 12:11:34;;;;;;;12.82;2.70;;;12.40;99.90;;;;;;5057343;28;20056;-58
2022/05/29 12:14:12;;;;;;;6.60;1.92;;;12.20;99.90;;;;;;5052671;28;20504;-59
2022/05/29 12:16:42;;;;;;;10.00;1.90;;;12.10;99.90;;;;;;5050921;28;20055;-59
2022/05/29 12:19:15;;;;;;;11.05;1.73;;;12.00;99.90;;;;;;5054538;28;20044;-59
2022/05/29 12:21:44;;;;;;;9.05;1.60;;;11.90;99.90;;;;;;5062086;28;20059;-59
2022/05/29 12:24:15;;;;;;;7.57;1.70;;;11.90;99.90;;;;;;5062177;28;20153;-59
2022/05/29 12:26:47;;;;;;;13.35;2.45;;;12.00;99.90;;;;;;5064573;28;20041;-59
2022/05/29 12:29:45;;;;;;;10.18;2.00;;;12.10;99.90;;;;;;5063283;28;20045;-59
2022/05/29 12:32:32;;;;;;;9.18;2.08;;;12.30;99.90;;;;;;5063475;28;20056;-59
2022/05/29 12:35:04;;;;;;;11.13;1.88;;;12.40;99.90;;;;;;5061285;28;20044;-59
2022/05/29 12:37:57;;;;;;;11.50;2.17;;;12.60;99.90;;;;;;5064081;28;20115;-59
2022/05/29 12:40:54;;;;;;;12.77;2.03;;;12.80;99.90;;;;;;5062876;28;20580;-58
2022/05/29 12:43:36;;;;;;;12.50;2.05;;;13.00;99.90;;;;;;5064749;28;21503;-59
2022/05/29 12:46:21;;;;;;;13.52;2.55;;;13.10;99.90;;;;;;5063545;28;20502;-58
2022/05/29 12:49:17;;;;;;;9.90;2.05;;;13.20;99.90;;;;;;5064598;28;20044;-59
2022/05/29 12:51:43;;;;;;;6.35;2.30;;;13.30;99.90;;;;;;5063591;28;20407;-59
2022/05/29 12:54:30;;;;;;;11.30;1.92;;;13.30;99.90;;;;;;5063206;28;20048;-59
2022/05/29 12:57:29;;;;;;;11.15;1.70;;;13.20;99.90;;;;;;5062800;28;20498;-59
2022/05/29 13:00:17;;;;;;;11.45;1.95;;;13.10;99.90;;;;;;5063770;28;20040;-59
2022/05/29 13:03:16;;;;;;;13.25;2.38;;;13.10;99.90;;;;;;5064894;28;20056;-59
2022/05/29 13:06:20;;;;;;;15.88;2.63;;;13.10;99.90;;;;;;5064699;28;20090;-58
2022/05/29 13:08:55;;;;;;;;;;;13.10;99.90;;;;;;5066166;28;20044;-58
2022/05/29 13:11:26;;;;;;;15.85;1.92;;;13.20;99.90;;;;;;5063004;28;20386;-59
2022/05/29 13:13:59;;;;;;;10.98;1.80;;;13.20;99.90;;;;;;5065573;28;20148;-59
2022/05/29 13:16:38;;;;;;;11.90;2.42;;;13.20;99.90;;;;;;5062863;28;20562;-59
2022/05/29 13:22:04;;;;;;;12.02;2.60;;;13.30;99.90;;;;;;5061133;28;20044;-59
2022/05/29 13:24:31;;;;;;;;;;;13.40;99.90;;;;;;5064418;28;20043;-58
2022/05/29 13:27:12;;;;;;;12.88;2.42;;;13.40;99.90;;;;;;5064077;28;20046;-59
2022/05/29 13:29:54;;;;;;;12.57;2.15;;;13.30;99.90;;;;;;5064591;28;20422;-59
2022/05/29 13:32:27;;;;;;;14.30;2.72;;;13.30;99.90;;;;;;5064956;28;20044;-60
2022/05/29 13:35:12;;;;;;;12.98;2.20;;;13.30;99.90;;;;;;5064815;28;20049;-59
2022/05/29 13:37:45;;;;;;;10.15;2.15;;;13.30;99.90;;;;;;5061591;28;20053;-59
2022/05/29 13:40:31;;;;;;;11.45;2.08;;;13.20;99.90;;;;;;5056298;28;20052;-59
2022/05/29 13:43:15;;;;;;;19.95;2.47;;;13.20;99.90;;;;;;5064231;28;20152;-59
2022/05/29 13:45:45;;;;;;;8.77;2.33;;;13.20;99.70;;;;;;5063752;28;20063;-59
2022/05/29 13:48:29;;;;;;;14.43;2.60;;;13.30;99.90;;;;;;5064371;28;20048;-59
2022/05/29 13:50:57;;;;;;;8.30;2.17;;;13.30;99.90;;;;;;5063112;28;20435;-58